createdAt,value
2022-08-22T00:02:43.756Z,19.64
2022-08-22T00:02:48.148Z,21.06
2022-08-22T04:03:08.786Z,18.06
2022-08-22T04:05:55.857Z,18.05
2022-08-22T04:08:56.306Z,18.06
2022-08-22T04:11:48.223Z,18.06
2022-08-22T04:14:26.863Z,18.05
2022-08-22T04:17:02.122Z,18.09
2022-08-22T04:20:35.510Z,18.10
2022-08-22T04:23:37.103Z,18.14
2022-08-22T04:26:21.361Z,18.13
2022-08-22T04:29:03.336Z,18.13
2022-08-22T04:31:56.905Z,18.15
2022-08-22T04:34:38.228Z,18.13
2022-08-22T04:41:49.632Z,18.19
2022-08-22T04:44:29.263Z,18.21
2022-08-22T05:05:14.121Z,18.34
2022-08-22T05:07:49.333Z,18.37
2022-08-22T05:37:50.398Z,18.70
2022-08-22T05:40:25.671Z,18.73
2022-08-22T05:42:57.242Z,18.77
2022-08-22T05:45:28.193Z,18.81
2022-08-22T05:48:33.570Z,18.87
2022-08-22T05:55:32.893Z,19.03
2022-08-22T05:58:57.615Z,19.04
2022-08-22T06:01:50.166Z,19.08
2022-08-22T06:04:37.219Z,19.15
2022-08-22T06:07:24.363Z,19.19
2022-08-22T06:10:28.706Z,19.23
2022-08-22T06:13:12.752Z,19.26
2022-08-22T06:16:11.181Z,19.29
2022-08-22T06:18:44.108Z,19.34
2022-08-22T06:21:22.633Z,19.39
2022-08-22T06:24:00.217Z,19.44
2022-08-22T06:26:38.602Z,19.51
2022-08-22T06:29:12.382Z,19.54
2022-08-22T06:31:49.721Z,19.57
2022-08-22T06:34:28.231Z,19.56
2022-08-22T06:36:59.473Z,19.59
2022-08-22T06:39:32.392Z,19.59
2022-08-22T06:42:01.823Z,19.62
2022-08-22T06:44:38.518Z,19.68
2022-08-22T06:47:10.923Z,19.81
2022-08-22T06:49:43.512Z,19.91
2022-08-22T06:52:19.371Z,20.02
2022-08-22T06:54:52.205Z,20.13
2022-08-22T06:57:44.731Z,20.20
2022-08-22T07:00:17.210Z,20.25
2022-08-22T07:02:51.736Z,20.29
2022-08-22T07:05:26.316Z,20.36
2022-08-22T07:07:56.519Z,20.42
2022-08-22T07:10:26.120Z,20.53
2022-08-22T07:12:57.308Z,20.60
2022-08-22T07:15:38.005Z,20.66
2022-08-22T07:18:32.426Z,20.73
2022-08-22T07:21:05.382Z,20.78
2022-08-22T07:28:02.256Z,20.70
2022-08-22T07:35:20.050Z,20.54
2022-08-22T07:38:09.267Z,20.49
2022-08-22T07:40:56.778Z,20.45
2022-08-22T07:43:31.814Z,20.39
2022-08-22T07:46:34.765Z,20.36
2022-08-22T07:49:15.628Z,20.31
2022-08-22T07:51:49.668Z,20.29
2022-08-22T07:54:34.358Z,20.34
2022-08-22T07:57:32.819Z,20.38
2022-08-22T08:00:16.339Z,20.41
2022-08-22T08:02:59.568Z,20.45
2022-08-22T08:05:38.590Z,20.44
2022-08-22T08:08:27.930Z,20.45
2022-08-22T08:11:03.481Z,20.46
2022-08-22T08:13:44.602Z,20.52
2022-08-22T08:16:27.191Z,20.58
2022-08-22T08:19:06.803Z,20.65
2022-08-22T08:21:55.005Z,20.71
2022-08-22T08:24:43.342Z,20.72
2022-08-22T08:27:50.263Z,20.77
2022-08-22T08:30:35.286Z,20.82
2022-08-22T08:33:25.516Z,20.88
2022-08-22T08:36:07.600Z,20.96
2022-08-22T08:38:46.571Z,21.01
2022-08-22T08:41:49.012Z,21.05
2022-08-22T08:44:51.903Z,21.09
2022-08-22T08:48:10.989Z,21.15
2022-08-22T08:50:47.631Z,21.21
2022-08-22T08:53:39.368Z,21.30
2022-08-22T08:56:59.929Z,21.40
2022-08-22T09:00:16.394Z,21.47
2022-08-22T09:03:11.151Z,21.60
2022-08-22T09:06:12.427Z,21.70
2022-08-22T09:08:59.290Z,21.77
2022-08-22T09:12:06.776Z,21.78
2022-08-22T09:15:01.080Z,21.84
2022-08-22T09:18:18.588Z,21.97
2022-08-22T09:21:00.270Z,22.01
2022-08-22T09:24:01.616Z,22.03
2022-08-22T09:27:08.751Z,22.08
2022-08-22T09:29:51.435Z,22.14
2022-08-22T09:32:53.572Z,22.13
2022-08-22T09:35:35.216Z,22.16
2022-08-22T09:38:25.423Z,22.21
2022-08-22T09:41:20.449Z,22.24
2022-08-22T09:44:28.908Z,22.24
2022-08-22T09:47:11.248Z,22.24
2022-08-22T09:50:16.977Z,22.30
2022-08-22T09:53:01.979Z,22.42
2022-08-22T09:55:36.275Z,22.51
2022-08-22T09:58:37.647Z,22.57
2022-08-22T10:01:32.938Z,22.63
2022-08-22T10:04:20.880Z,22.66
2022-08-22T10:07:28.315Z,22.67
2022-08-22T10:10:21.524Z,22.67
2022-08-22T10:13:11.553Z,22.64
2022-08-22T10:16:30.505Z,22.65
2022-08-22T10:19:38.944Z,22.68
2022-08-22T10:22:10.757Z,22.81
2022-08-22T10:24:59.008Z,22.99
2022-08-22T10:28:10.647Z,23.18
2022-08-22T10:31:22.407Z,23.43
2022-08-22T10:34:20.597Z,23.59
2022-08-22T10:37:00.915Z,23.63
2022-08-22T10:39:50.063Z,23.64
2022-08-22T10:42:30.169Z,23.60
2022-08-22T10:45:05.083Z,23.60
2022-08-22T10:47:54.730Z,23.48
2022-08-22T10:50:49.396Z,23.40
2022-08-22T10:53:34.807Z,23.44
2022-08-22T10:56:10.571Z,23.50
2022-08-22T10:58:49.785Z,23.52
2022-08-22T11:01:38.170Z,23.50
2022-08-22T11:04:44.952Z,23.48
2022-08-22T11:08:00.071Z,23.41
2022-08-22T11:11:06.615Z,23.39
2022-08-22T11:13:44.520Z,23.51
2022-08-22T11:16:18.320Z,23.65
2022-08-22T11:19:15.945Z,23.68
2022-08-22T11:21:58.308Z,23.68
2022-08-22T11:24:56.254Z,23.69
2022-08-22T11:27:40.790Z,23.75
2022-08-22T11:30:29.586Z,23.83
2022-08-22T11:33:47.150Z,23.89
2022-08-22T11:36:37.289Z,23.93
2022-08-22T11:39:18.532Z,23.98
2022-08-22T11:41:52.405Z,24.10
2022-08-22T11:44:50.786Z,24.20
2022-08-22T11:47:28.066Z,24.29
2022-08-22T11:50:03.624Z,24.28
2022-08-22T11:53:04.342Z,24.27
2022-08-22T11:55:58.749Z,24.39
2022-08-22T11:58:46.591Z,24.36
2022-08-22T12:01:23.061Z,24.22
2022-08-22T12:04:09.903Z,24.24
2022-08-22T12:07:01.546Z,24.34
2022-08-22T12:09:55.581Z,24.39
2022-08-22T12:12:29.320Z,24.30
2022-08-22T12:15:02.128Z,24.24
2022-08-22T12:18:09.540Z,24.22
2022-08-22T12:21:15.630Z,24.23
2022-08-22T12:24:06.115Z,24.21
2022-08-22T12:26:55.412Z,24.15
2022-08-22T12:29:48.051Z,24.13
2022-08-22T12:32:34.246Z,24.17
2022-08-22T12:35:43.616Z,24.18
2022-08-22T12:38:49.568Z,24.20
2022-08-22T12:42:04.111Z,24.20
2022-08-22T12:44:52.252Z,24.18
2022-08-22T12:48:03.497Z,24.16
2022-08-22T12:51:02.526Z,24.19
2022-08-22T12:54:12.062Z,24.26
2022-08-22T12:56:50.768Z,24.35
2022-08-22T12:59:25.815Z,24.39
2022-08-22T13:02:00.453Z,24.50
2022-08-22T13:04:34.988Z,24.56
2022-08-22T13:07:18.485Z,24.62
2022-08-22T13:09:50.190Z,24.65
2022-08-22T13:12:34.090Z,24.54
2022-08-22T13:15:28.809Z,24.43
2022-08-22T13:18:18.857Z,24.32
2022-08-22T13:20:53.427Z,24.30
2022-08-22T13:23:45.516Z,24.34
2022-08-22T13:26:32.090Z,24.42
2022-08-22T13:29:25.142Z,24.40
2022-08-22T13:32:04.469Z,24.36
2022-08-22T13:34:49.825Z,24.39
2022-08-22T13:37:24.513Z,24.42
2022-08-22T13:39:59.469Z,24.44
2022-08-22T13:42:31.609Z,24.49
2022-08-22T13:45:06.147Z,24.58
2022-08-22T13:47:39.732Z,24.59
2022-08-22T13:50:15.068Z,24.60
2022-08-22T13:52:55.351Z,24.59
2022-08-22T13:55:29.996Z,24.65
2022-08-22T13:58:22.638Z,24.62
2022-08-22T14:01:15.303Z,24.55
2022-08-22T14:04:01.595Z,24.56
2022-08-22T14:06:48.261Z,24.55
2022-08-22T14:09:42.871Z,24.59
2022-08-22T14:12:24.320Z,24.59
2022-08-22T14:15:07.074Z,24.60
2022-08-22T14:17:48.908Z,24.67
2022-08-22T14:20:32.245Z,24.70
2022-08-22T14:23:24.129Z,24.67
2022-08-22T14:25:57.432Z,24.64
2022-08-22T14:28:31.993Z,24.54
2022-08-22T14:31:13.721Z,24.45
2022-08-22T14:33:57.571Z,24.42
2022-08-22T14:36:30.239Z,24.40
2022-08-22T14:39:11.402Z,24.34
2022-08-22T14:41:56.211Z,24.33
2022-08-22T14:44:42.297Z,24.31
2022-08-22T14:47:40.358Z,24.19
2022-08-22T14:50:37.183Z,24.06
2022-08-22T14:53:24.963Z,23.98
2022-08-22T14:56:05.216Z,23.90
2022-08-22T14:58:49.987Z,23.83
2022-08-22T15:01:23.207Z,23.80
2022-08-22T15:04:05.746Z,23.81
2022-08-22T15:06:48.179Z,23.81
2022-08-22T15:09:41.499Z,23.80
2022-08-22T15:12:31.909Z,23.84
2022-08-22T15:15:06.270Z,23.87
2022-08-22T15:18:01.174Z,23.91
2022-08-22T15:20:36.303Z,24.01
2022-08-22T15:23:17.049Z,24.08
2022-08-22T15:25:56.480Z,24.07
2022-08-22T15:28:26.135Z,24.02
2022-08-22T15:30:58.747Z,24.03
2022-08-22T15:33:45.448Z,24.09
2022-08-22T15:36:22.628Z,24.06
2022-08-22T15:39:30.713Z,24.05
2022-08-22T15:42:02.871Z,24.00
2022-08-22T15:44:44.334Z,23.92
2022-08-22T15:47:27.682Z,23.88
2022-08-22T15:50:01.901Z,23.86
2022-08-22T15:52:59.153Z,23.80
2022-08-22T15:55:36.942Z,23.72
2022-08-22T15:58:22.580Z,23.65
2022-08-22T16:01:19.777Z,23.55
2022-08-22T16:04:14.517Z,23.49
2022-08-22T16:06:49.603Z,23.43
2022-08-22T16:09:50.594Z,23.37
2022-08-22T16:12:33.822Z,23.31
2022-08-22T16:15:05.902Z,23.26
2022-08-22T16:17:44.304Z,23.20
2022-08-22T16:20:20.199Z,23.19
2022-08-22T16:22:57.691Z,23.17
2022-08-22T16:25:45.671Z,23.16
2022-08-22T16:28:57.276Z,23.14
2022-08-22T16:31:57.029Z,23.12
2022-08-22T16:34:38.318Z,23.11
2022-08-22T16:37:18.463Z,23.10
2022-08-22T16:39:59.295Z,23.07
2022-08-22T16:42:58.143Z,23.04
2022-08-22T16:45:36.959Z,23.00
2022-08-22T16:48:32.794Z,22.94
2022-08-22T16:51:09.459Z,22.87
2022-08-22T16:53:38.712Z,22.84
2022-08-22T16:56:31.806Z,22.82
2022-08-22T16:59:22.597Z,22.75
2022-08-22T17:02:10.567Z,22.72
2022-08-22T17:05:03.615Z,22.66
2022-08-22T17:07:55.097Z,22.57
2022-08-22T17:10:37.229Z,22.48
2022-08-22T17:13:32.877Z,22.43
2022-08-22T17:16:08.321Z,22.39
2022-08-22T17:18:52.671Z,22.33
2022-08-22T17:21:51.855Z,22.26
2022-08-22T17:24:52.214Z,22.20
2022-08-22T17:27:38.846Z,22.14
2022-08-22T17:30:13.734Z,22.12
2022-08-22T17:33:05.235Z,22.06
2022-08-22T17:35:40.585Z,21.98
2022-08-22T17:38:33.758Z,21.95
2022-08-22T17:41:40.947Z,21.89
2022-08-22T17:44:23.333Z,21.82
2022-08-22T17:47:08.150Z,21.77
2022-08-22T17:49:45.267Z,21.74
2022-08-22T17:52:40.173Z,21.72
2022-08-22T17:55:15.929Z,21.66
2022-08-22T17:57:56.626Z,21.60
2022-08-22T18:00:40.048Z,21.57
2022-08-22T18:03:25.851Z,21.52
2022-08-22T18:06:24.334Z,21.45
2022-08-22T18:09:17.800Z,21.41
2022-08-22T18:11:52.597Z,21.37
2022-08-22T18:14:24.917Z,21.29
2022-08-22T18:16:56.511Z,21.24
2022-08-22T18:19:58.662Z,21.20
2022-08-22T18:22:41.815Z,21.18
2022-08-22T18:25:20.055Z,21.14
2022-08-22T18:27:56.431Z,21.12
2022-08-22T18:30:53.758Z,21.11
2022-08-22T18:33:35.446Z,21.10
2022-08-22T18:36:18.763Z,21.08
2022-08-22T18:38:54.954Z,21.07
2022-08-22T18:41:39.299Z,21.08
2022-08-22T18:44:21.583Z,21.08
2022-08-22T18:46:53.243Z,21.09
2022-08-22T18:49:24.698Z,21.09
2022-08-22T18:52:06.319Z,21.10
2022-08-22T18:55:11.360Z,21.09
2022-08-22T18:58:06.543Z,21.07
2022-08-22T19:00:47.525Z,21.05
2022-08-22T19:03:48.662Z,21.04
2022-08-22T19:06:45.001Z,21.00
2022-08-22T19:09:38.251Z,20.96
2022-08-22T19:12:15.961Z,20.92
2022-08-22T19:15:24.221Z,20.89
2022-08-22T19:18:34.873Z,20.89
2022-08-22T19:21:41.506Z,20.89
2022-08-22T19:24:57.191Z,20.90
2022-08-22T19:27:31.111Z,20.88
2022-08-22T19:30:26.957Z,20.90
2022-08-22T19:32:59.577Z,20.88
2022-08-22T19:40:45.869Z,20.86
2022-08-22T19:43:31.454Z,20.87
2022-08-22T19:46:07.068Z,20.88
2022-08-22T19:48:50.625Z,20.86
2022-08-22T19:51:20.023Z,20.82
2022-08-22T19:54:21.066Z,20.83
2022-08-22T19:57:10.308Z,20.84
2022-08-22T20:00:01.213Z,20.85
2022-08-22T20:02:57.153Z,20.80
2022-08-22T20:05:44.908Z,20.78
2022-08-22T20:08:59.375Z,20.74
2022-08-22T20:11:51.176Z,20.72
2022-08-22T20:14:40.246Z,20.72
2022-08-22T20:17:28.003Z,20.73
2022-08-22T20:22:57.895Z,20.75
2022-08-22T20:25:42.086Z,20.76
2022-08-22T20:28:30.308Z,20.74
2022-08-22T20:31:02.464Z,20.71
2022-08-22T20:33:42.318Z,20.69
2022-08-22T20:36:27.647Z,20.66
2022-08-22T20:39:11.245Z,20.67
2022-08-22T20:41:44.043Z,20.64
2022-08-22T20:44:31.689Z,20.63
2022-08-22T20:47:11.488Z,20.60
2022-08-22T20:49:51.133Z,20.62
2022-08-22T20:52:22.911Z,20.63
2022-08-22T20:55:19.628Z,20.65
2022-08-22T20:57:59.654Z,20.63
2022-08-22T21:00:46.102Z,20.60
2022-08-22T21:03:41.800Z,20.59
2022-08-22T21:06:15.941Z,20.59
2022-08-22T21:08:47.995Z,20.59
2022-08-22T21:11:41.687Z,20.58
2022-08-22T21:14:26.642Z,20.56
2022-08-22T21:16:56.441Z,20.52
2022-08-22T21:19:30.881Z,20.51
2022-08-22T21:22:18.372Z,20.50
2022-08-22T21:24:48.351Z,20.52
2022-08-22T21:27:27.113Z,20.52
2022-08-22T21:29:58.578Z,20.53
2022-08-22T21:32:34.998Z,20.52
2022-08-22T21:35:07.891Z,20.50
2022-08-22T21:37:40.875Z,20.50
2022-08-22T21:40:20.552Z,20.47
2022-08-22T21:43:09.859Z,20.44
2022-08-22T21:45:39.768Z,20.41
2022-08-22T21:48:39.573Z,20.40
2022-08-22T21:51:29.159Z,20.39
2022-08-22T21:54:26.208Z,20.32
2022-08-22T21:57:17.685Z,20.23
2022-08-22T21:59:59.519Z,20.19
2022-08-22T22:02:31.126Z,20.16
2022-08-22T22:05:02.803Z,20.12
2022-08-22T22:07:32.408Z,20.07
2022-08-22T22:10:02.100Z,20.05
2022-08-22T22:12:32.187Z,20.05
2022-08-22T22:15:02.171Z,20.05
2022-08-22T22:17:31.539Z,20.04
2022-08-22T22:20:01.025Z,20.01
2022-08-22T22:22:31.098Z,19.99
2022-08-22T22:25:00.772Z,19.96
2022-08-22T22:27:30.191Z,19.93
2022-08-22T22:30:00.152Z,19.92
2022-08-22T22:32:29.815Z,19.90
2022-08-22T22:34:59.223Z,19.92
2022-08-22T22:37:29.633Z,19.90
2022-08-22T22:40:00.390Z,19.91
2022-08-22T22:42:37.891Z,19.90
2022-08-22T22:45:07.777Z,19.88
2022-08-22T22:47:37.517Z,19.87
2022-08-22T22:50:07.900Z,19.87
2022-08-22T22:52:45.815Z,19.85
2022-08-22T22:55:24.186Z,19.82
2022-08-22T22:57:58.973Z,19.82
